Impacts METAR Board
IDs:

KDEN - Denver Intl, CO, US

Updated at: 1300 UTC 07 Jul 2020
Potential Impact None Slight Moderate High
Time 07/01Z 07/02Z 07/03Z 07/04Z 07/05Z 07/06Z 07/07Z 07/08Z 07/09Z 07/10Z 07/11Z 07/12Z 07/13Z
Temp88 79 78 76 77 79 74 72 71 70 70 67 71
Dewpt39 44 42 45 44 47 49 52 51 49 47 47 47
Altim30.06 30.08 30.08 30.11 30.08 30.07 30.07 30.05 30.03 30.03 30.02 30.03 30.03
VIS10 10 10 10 10 10 10 10 10 10 10 10 10
CIG140 -- -- -- -- 200 -- -- -- -- -- -- --
CoverBKNSCTSCTFEWSCTBKNSCTFEWFEWCLRFEWSCTSCT
FltCatVFRVFRVFRVFRVFRVFRVFRVFRVFRVFRVFRVFRVFR
WX--------------------------
WDir0170170190170190200200210190190170150
WSpd3 17 14 13 10 18 17 18 17 14 14 10 8
WGst-- 24 -- -- -- 29 26 27 -- -- -- -- --
Raw hourly METARs
KDEN 070053Z VRB03KT 10SM BKN140 BKN180 31/04 A3006 RMK AO2 SLP089 VIRGA W-N T03110039
KDEN 070153Z 17017G24KT 10SM SCT140 SCT180 26/07 A3008 RMK AO2 PK WND 16029/0126 SLP102 T02610067
KDEN 070253Z 17014KT 10SM SCT140 26/06 A3008 RMK AO2 SLP098 T02560056 51010
KDEN 070353Z 19013KT 10SM FEW140 24/07 A3011 RMK AO2 SLP104 T02440072
KDEN 070453Z 17010KT 10SM FEW140 SCT200 25/07 A3008 RMK AO2 SLP091 T02500067
KDEN 070553Z 19018G29KT 10SM FEW140 BKN200 26/08 A3007 RMK AO2 PK WND 20029/0548 SLP084 T02610083 10317 20239 58002
KDEN 070653Z 20017G26KT 10SM SCT200 23/09 A3007 RMK AO2 PK WND 19029/0607 SLP082 T02330094 403610128
KDEN 070753Z 20018G27KT 10SM FEW200 22/11 A3005 RMK AO2 PK WND 20031/0727 SLP075 T02220111
KDEN 070853Z 21017KT 10SM FEW200 22/11 A3003 RMK AO2 PK WND 20028/0755 SLP071 T02170106 58012
KDEN 070953Z 19014KT 10SM CLR 21/09 A3003 RMK AO2 SLP069 T02110094
KDEN 071053Z 19014KT 10SM FEW180 21/08 A3002 RMK AO2 SLP066 T02110083
KDEN 071153Z 17010KT 10SM FEW100 SCT180 19/08 A3003 RMK AO2 SLP078 VIRGA T01940083 10261 20194 55000
KDEN 071253Z 15008KT 10SM SCT100 SCT180 22/08 A3003 RMK AO2 SLP075 VIRGA T02170083



Page loaded:  13:43 UTC  |   06:43 AM Pacific  |   07:43 AM Mountain  |   08:43 AM Central  |   09:43 AM Eastern

 

ADVISORIES

FORECASTS

FORECASTS

OBSERVATIONS

USER TOOLS

ABOUT US